createdAt,value
2018-12-16T00:00:00.297Z,0.20
2018-12-16T00:02:29.746Z,0.20
2018-12-16T00:05:02.239Z,0.20
2018-12-16T00:07:33.533Z,0.20
2018-12-16T00:10:02.820Z,0.20
2018-12-16T00:12:35.869Z,0.20
2018-12-16T00:15:05.588Z,0.20
2018-12-16T00:17:34.957Z,0.20
2018-12-16T00:20:04.309Z,0.20
2018-12-16T00:22:33.825Z,0.20
2018-12-16T00:25:03.251Z,0.20
2018-12-16T00:27:32.670Z,0.20
2018-12-16T00:30:02.011Z,0.20
2018-12-16T00:32:31.469Z,0.20
2018-12-16T00:35:00.821Z,0.20
2018-12-16T00:37:30.464Z,0.20
2018-12-16T00:39:59.786Z,0.20
2018-12-16T00:42:29.417Z,0.20
2018-12-16T00:44:58.842Z,0.20
2018-12-16T00:47:28.237Z,0.20
2018-12-16T00:49:57.598Z,0.20
2018-12-16T00:52:27.092Z,0.30
2018-12-16T00:54:56.885Z,0.30
2018-12-16T00:57:26.232Z,0.30
2018-12-16T00:59:55.658Z,0.30
2018-12-16T01:02:29.138Z,0.40
2018-12-16T01:04:58.602Z,0.40
2018-12-16T01:07:27.888Z,0.40
2018-12-16T01:09:57.194Z,0.40
2018-12-16T01:12:26.467Z,0.40
2018-12-16T01:14:55.848Z,0.40
2018-12-16T01:17:25.196Z,0.40
2018-12-16T01:19:54.469Z,0.40
2018-12-16T01:22:23.785Z,0.40
2018-12-16T01:24:53.266Z,0.40
2018-12-16T01:27:22.549Z,0.40
2018-12-16T01:29:51.834Z,0.40
2018-12-16T01:32:21.181Z,0.40
2018-12-16T01:34:50.508Z,0.40
2018-12-16T01:37:19.825Z,0.40
2018-12-16T01:39:49.113Z,0.40
2018-12-16T01:42:18.408Z,0.40
2018-12-16T01:44:47.870Z,0.40
2018-12-16T01:47:17.206Z,0.40
2018-12-16T01:49:46.671Z,0.30
2018-12-16T01:52:17.546Z,0.30
2018-12-16T01:54:46.827Z,0.30
2018-12-16T01:57:16.088Z,0.30
2018-12-16T01:59:45.367Z,0.20
2018-12-16T02:02:14.628Z,0.30
2018-12-16T02:04:43.981Z,0.30
2018-12-16T02:07:13.805Z,0.30
2018-12-16T02:09:43.059Z,0.20
2018-12-16T02:12:12.403Z,0.20
2018-12-16T02:14:42.100Z,0.20
2018-12-16T02:17:11.332Z,0.20
2018-12-16T02:19:40.713Z,0.30
2018-12-16T02:22:10.036Z,0.30
2018-12-16T02:24:39.229Z,0.20
2018-12-16T02:27:08.542Z,0.20
2018-12-16T02:29:37.918Z,0.20
2018-12-16T02:32:07.215Z,0.10
2018-12-16T02:34:36.519Z,0.10
2018-12-16T02:37:05.839Z,0.10
2018-12-16T02:39:35.195Z,0.10
2018-12-16T02:42:04.585Z,0.10
2018-12-16T02:44:33.798Z,0.10
2018-12-16T02:47:03.050Z,0.00
2018-12-16T02:49:32.314Z,0.00
2018-12-16T02:52:01.588Z,0.00
2018-12-16T02:54:30.904Z,0.00
2018-12-16T02:57:00.271Z,0.00
2018-12-16T02:59:29.511Z,0.10
2018-12-16T03:01:58.724Z,0.00
2018-12-16T03:04:28.019Z,0.00
2018-12-16T03:06:57.370Z,0.00
2018-12-16T03:09:26.559Z,0.00
2018-12-16T03:11:55.804Z,0.00
2018-12-16T03:14:25.074Z,0.00
2018-12-16T03:16:54.341Z,0.00
2018-12-16T03:19:23.619Z,0.00
2018-12-16T03:21:52.866Z,-0.10
2018-12-16T03:24:22.105Z,-0.10
2018-12-16T03:26:51.401Z,0.00
2018-12-16T03:29:20.737Z,-0.10
2018-12-16T03:31:49.971Z,0.00
2018-12-16T03:34:19.224Z,0.00
2018-12-16T03:36:48.479Z,-0.10
2018-12-16T03:39:17.730Z,-0.10
2018-12-16T03:41:48.439Z,-0.10
2018-12-16T03:44:17.639Z,-0.10
2018-12-16T03:46:46.867Z,-0.10
2018-12-16T03:49:16.255Z,-0.10
2018-12-16T03:51:45.655Z,-0.10
2018-12-16T03:54:15.045Z,0.00
2018-12-16T03:56:44.388Z,-0.10
2018-12-16T03:59:18.285Z,-0.10
2018-12-16T04:01:51.994Z,-0.10
2018-12-16T04:04:21.590Z,-0.10
2018-12-16T04:06:51.456Z,-0.10
2018-12-16T04:09:20.867Z,-0.10
2018-12-16T04:11:50.522Z,-0.10
2018-12-16T04:14:19.982Z,0.00
2018-12-16T04:16:51.058Z,-0.10
2018-12-16T04:19:20.412Z,-0.10
2018-12-16T04:21:49.564Z,0.00
2018-12-16T04:24:18.912Z,-0.10
2018-12-16T04:26:48.726Z,-0.10
2018-12-16T04:29:17.984Z,-0.10
2018-12-16T04:31:47.195Z,-0.10
2018-12-16T04:34:16.484Z,-0.10
2018-12-16T04:36:46.826Z,-0.10
2018-12-16T04:39:16.062Z,-0.10
2018-12-16T04:41:45.354Z,-0.10
2018-12-16T04:44:14.642Z,-0.10
2018-12-16T04:46:44.056Z,-0.10
2018-12-16T04:49:15.404Z,-0.10
2018-12-16T04:51:44.586Z,-0.10
2018-12-16T04:54:13.868Z,-0.10
2018-12-16T04:56:43.132Z,-0.10
2018-12-16T04:59:12.395Z,-0.10
2018-12-16T05:01:41.644Z,-0.10
2018-12-16T05:04:10.849Z,-0.10
2018-12-16T05:06:40.037Z,-0.10
2018-12-16T05:09:09.257Z,-0.10
2018-12-16T05:11:38.923Z,-0.10
2018-12-16T05:14:08.177Z,-0.20
2018-12-16T05:16:37.464Z,-0.20
2018-12-16T05:19:06.785Z,-0.10
2018-12-16T05:21:36.118Z,-0.10
2018-12-16T05:24:05.379Z,-0.10
2018-12-16T05:26:34.639Z,-0.10
2018-12-16T05:29:03.904Z,-0.10
2018-12-16T05:31:33.157Z,-0.10
2018-12-16T05:34:02.454Z,-0.10
2018-12-16T05:36:31.810Z,-0.10
2018-12-16T05:39:01.208Z,-0.10
2018-12-16T05:41:32.467Z,-0.10
2018-12-16T05:44:01.689Z,-0.10
2018-12-16T05:46:31.093Z,-0.10
2018-12-16T05:49:00.350Z,-0.20
2018-12-16T05:51:29.661Z,-0.20
2018-12-16T05:53:58.961Z,-0.20
2018-12-16T05:56:28.366Z,-0.30
2018-12-16T05:58:57.688Z,-0.30
2018-12-16T06:01:26.987Z,-0.30
2018-12-16T06:03:56.306Z,-0.30
2018-12-16T06:06:25.536Z,-0.30
2018-12-16T06:08:54.777Z,-0.30
2018-12-16T06:11:25.772Z,-0.30
2018-12-16T06:13:55.034Z,-0.20
2018-12-16T06:16:24.323Z,-0.30
2018-12-16T06:18:53.569Z,-0.30
2018-12-16T06:21:22.840Z,-0.30
2018-12-16T06:23:55.555Z,-0.30
2018-12-16T06:26:24.237Z,-0.30
2018-12-16T06:28:53.546Z,-0.30
2018-12-16T06:31:22.762Z,-0.30
2018-12-16T06:33:52.011Z,-0.30
2018-12-16T06:36:21.313Z,-0.30
2018-12-16T06:38:55.282Z,-0.30
2018-12-16T06:41:24.543Z,-0.30
2018-12-16T06:43:53.773Z,-0.30
2018-12-16T06:46:23.088Z,-0.30
2018-12-16T06:48:52.430Z,-0.30
2018-12-16T06:51:21.715Z,-0.30
2018-12-16T06:53:50.993Z,-0.30
2018-12-16T06:56:20.168Z,-0.30
2018-12-16T06:58:49.393Z,-0.30
2018-12-16T07:01:18.790Z,-0.30
2018-12-16T07:03:48.371Z,-0.30
2018-12-16T07:06:17.731Z,-0.30
2018-12-16T07:08:47.090Z,-0.20
2018-12-16T07:11:16.656Z,-0.30
2018-12-16T07:13:46.960Z,-0.20
2018-12-16T07:16:16.332Z,-0.20
2018-12-16T07:18:46.604Z,-0.20
2018-12-16T07:21:15.992Z,-0.20
2018-12-16T07:23:45.371Z,-0.20
2018-12-16T07:26:14.730Z,-0.20
2018-12-16T07:28:45.427Z,-0.20
2018-12-16T07:31:14.788Z,-0.20
2018-12-16T07:33:44.685Z,-0.20
2018-12-16T07:36:14.213Z,-0.20
2018-12-16T07:38:43.585Z,-0.20
2018-12-16T07:41:12.894Z,-0.20
2018-12-16T07:43:42.216Z,-0.20
2018-12-16T07:46:11.506Z,-0.20
2018-12-16T07:48:40.963Z,-0.20
2018-12-16T07:51:10.348Z,-0.20
2018-12-16T07:53:39.589Z,-0.20
2018-12-16T07:56:08.936Z,-0.20
2018-12-16T07:58:38.182Z,-0.20
2018-12-16T08:01:07.655Z,-0.20
2018-12-16T08:03:37.409Z,-0.20
2018-12-16T08:06:06.898Z,-0.10
2018-12-16T08:08:36.309Z,-0.20
2018-12-16T08:11:05.577Z,-0.20
2018-12-16T08:13:35.406Z,-0.20
2018-12-16T08:16:05.247Z,-0.20
2018-12-16T08:18:34.591Z,-0.10
2018-12-16T08:21:04.094Z,-0.20
2018-12-16T08:23:33.498Z,-0.20
2018-12-16T08:26:02.906Z,-0.10
2018-12-16T08:28:32.233Z,-0.10
2018-12-16T08:31:01.531Z,-0.10
2018-12-16T08:33:30.899Z,-0.10
2018-12-16T08:36:00.248Z,-0.10
2018-12-16T08:38:29.831Z,-0.10
2018-12-16T08:40:59.168Z,-0.10
2018-12-16T08:43:28.530Z,-0.10
2018-12-16T08:45:57.855Z,-0.10
2018-12-16T08:48:27.248Z,0.00
2018-12-16T08:51:01.176Z,0.00
2018-12-16T08:53:30.557Z,0.00
2018-12-16T08:55:59.815Z,0.00
2018-12-16T08:58:29.107Z,0.00
2018-12-16T09:00:58.407Z,0.00
2018-12-16T09:03:27.709Z,0.00
2018-12-16T09:05:57.407Z,0.00
2018-12-16T09:08:26.735Z,0.00
2018-12-16T09:10:56.077Z,0.00
2018-12-16T09:13:25.431Z,0.00
2018-12-16T09:15:54.733Z,0.00
2018-12-16T09:18:24.099Z,0.10
2018-12-16T09:20:53.466Z,0.10
2018-12-16T09:23:22.811Z,0.00
2018-12-16T09:25:52.115Z,0.10
2018-12-16T09:28:22.078Z,0.10
2018-12-16T09:30:57.776Z,0.10
2018-12-16T09:33:22.741Z,0.00
2018-12-16T09:35:52.116Z,0.10
2018-12-16T09:38:21.468Z,0.10
2018-12-16T09:40:54.560Z,0.10
2018-12-16T09:43:26.153Z,0.20
2018-12-16T09:45:56.898Z,0.20
2018-12-16T09:48:38.436Z,0.20
2018-12-16T09:51:09.839Z,0.20
2018-12-16T09:53:55.975Z,0.20
2018-12-16T10:00:16.179Z,0.20
2018-12-16T10:02:49.281Z,0.20
2018-12-16T10:05:29.033Z,0.20
2018-12-16T10:08:32.920Z,0.20
2018-12-16T10:11:47.310Z,0.20
2018-12-16T10:14:20.901Z,0.10
2018-12-16T10:16:57.883Z,0.10
2018-12-16T10:19:43.378Z,0.20
2018-12-16T10:22:18.084Z,0.20
2018-12-16T10:24:53.316Z,0.20
2018-12-16T10:27:28.008Z,0.10
2018-12-16T10:30:19.957Z,0.10
2018-12-16T10:32:52.310Z,0.20
2018-12-16T10:35:21.946Z,0.10
2018-12-16T10:37:51.370Z,0.10
2018-12-16T10:40:42.459Z,0.10
2018-12-16T10:43:51.977Z,0.10
2018-12-16T10:46:57.356Z,0.10
2018-12-16T10:49:58.048Z,0.10
2018-12-16T10:52:28.583Z,0.10
2018-12-16T10:54:58.518Z,0.10
2018-12-16T10:57:28.256Z,0.10
2018-12-16T10:59:57.651Z,0.10
2018-12-16T11:02:26.973Z,0.10
2018-12-16T11:04:56.446Z,0.10
2018-12-16T11:07:28.656Z,0.20
2018-12-16T11:09:58.080Z,0.10
2018-12-16T11:12:27.537Z,0.10
2018-12-16T11:14:56.815Z,0.20
2018-12-16T11:17:26.488Z,0.20
2018-12-16T11:19:55.985Z,0.20
2018-12-16T11:22:25.282Z,0.20
2018-12-16T11:24:54.794Z,0.20
2018-12-16T11:27:24.107Z,0.20
2018-12-16T11:29:53.416Z,0.20
2018-12-16T11:32:22.781Z,0.30
2018-12-16T11:34:52.232Z,0.30
2018-12-16T11:37:21.579Z,0.30
2018-12-16T11:39:53.467Z,0.30
2018-12-16T11:42:23.048Z,0.30
2018-12-16T11:44:52.348Z,0.30
2018-12-16T11:47:21.691Z,0.30
2018-12-16T11:49:51.148Z,0.30
2018-12-16T11:52:20.637Z,0.30
2018-12-16T11:54:49.896Z,0.30
2018-12-16T11:57:20.659Z,0.30
2018-12-16T11:59:49.949Z,0.30
2018-12-16T12:02:19.193Z,0.30
2018-12-16T12:04:50.477Z,0.30
2018-12-16T12:07:19.846Z,0.30
2018-12-16T12:09:49.189Z,0.40
2018-12-16T12:12:18.546Z,0.40
2018-12-16T12:14:47.959Z,0.40
2018-12-16T12:17:17.216Z,0.40
2018-12-16T12:19:46.491Z,0.30
2018-12-16T12:22:15.866Z,0.30
2018-12-16T12:24:45.908Z,0.30
2018-12-16T12:27:15.321Z,0.30
2018-12-16T12:29:44.719Z,0.30
2018-12-16T12:32:14.109Z,0.30
2018-12-16T12:34:45.118Z,0.30
2018-12-16T12:37:14.461Z,0.30
2018-12-16T12:39:43.821Z,0.20
2018-12-16T12:42:13.159Z,0.20
2018-12-16T12:44:42.592Z,0.20
2018-12-16T12:47:11.938Z,0.20
2018-12-16T12:49:44.903Z,0.20
2018-12-16T12:52:12.896Z,0.20
2018-12-16T12:54:42.292Z,0.20
2018-12-16T12:57:11.763Z,0.20
2018-12-16T12:59:41.101Z,0.20
2018-12-16T13:02:10.574Z,0.20
2018-12-16T13:04:39.998Z,0.20
2018-12-16T13:07:09.370Z,0.20
2018-12-16T13:09:38.814Z,0.20
2018-12-16T13:12:08.088Z,0.20
2018-12-16T13:14:37.567Z,0.20
2018-12-16T13:17:07.075Z,0.20
2018-12-16T13:19:36.530Z,0.20
2018-12-16T13:22:05.825Z,0.30
2018-12-16T13:24:35.348Z,0.30
2018-12-16T13:27:05.026Z,0.30
2018-12-16T13:29:34.293Z,0.30
2018-12-16T13:32:04.620Z,0.30
2018-12-16T13:34:34.029Z,0.30
2018-12-16T13:37:03.329Z,0.30
2018-12-16T13:39:32.692Z,0.40
2018-12-16T13:42:02.150Z,0.40
2018-12-16T13:44:31.445Z,0.30
2018-12-16T13:47:00.816Z,0.30
2018-12-16T13:49:31.804Z,0.30
2018-12-16T13:52:01.100Z,0.30
2018-12-16T13:54:30.451Z,0.30
2018-12-16T13:56:59.883Z,0.20
2018-12-16T13:59:29.153Z,0.30
2018-12-16T14:01:58.448Z,0.30
2018-12-16T14:04:27.729Z,0.20
2018-12-16T14:06:57.129Z,0.30
2018-12-16T14:09:26.530Z,0.30
2018-12-16T14:11:57.460Z,0.30
2018-12-16T14:14:26.753Z,0.30
2018-12-16T14:16:56.123Z,0.30
2018-12-16T14:19:25.598Z,0.30
2018-12-16T14:21:55.016Z,0.30
2018-12-16T14:24:24.529Z,0.30
2018-12-16T14:26:53.916Z,0.30
2018-12-16T14:29:23.340Z,0.30
2018-12-16T14:31:52.738Z,0.20
2018-12-16T14:34:22.206Z,0.20
2018-12-16T14:36:51.956Z,0.20
2018-12-16T14:39:21.336Z,0.20
2018-12-16T14:41:50.818Z,0.20
2018-12-16T14:44:20.128Z,0.20
2018-12-16T14:46:49.360Z,0.20
2018-12-16T14:49:20.313Z,0.20
2018-12-16T14:51:49.763Z,0.10
2018-12-16T14:54:19.169Z,0.20
2018-12-16T14:56:48.434Z,0.10
2018-12-16T14:59:17.860Z,0.10
2018-12-16T15:01:47.269Z,0.10
2018-12-16T15:04:16.667Z,0.10
2018-12-16T15:06:46.008Z,0.10
2018-12-16T15:09:15.677Z,0.10
2018-12-16T15:11:45.076Z,0.10
2018-12-16T15:14:14.372Z,0.10
2018-12-16T15:16:44.090Z,0.10
2018-12-16T15:19:13.508Z,0.10
2018-12-16T15:21:43.945Z,0.00
2018-12-16T15:24:13.263Z,0.10
2018-12-16T15:26:42.609Z,0.10
2018-12-16T15:29:13.449Z,0.10
2018-12-16T15:31:42.748Z,0.10
2018-12-16T15:34:12.062Z,0.10
2018-12-16T15:36:41.393Z,0.10
2018-12-16T15:39:10.749Z,0.10
2018-12-16T15:41:42.036Z,0.10
2018-12-16T15:44:11.336Z,0.10
2018-12-16T15:46:40.676Z,0.20
2018-12-16T15:49:10.079Z,0.10
2018-12-16T15:51:39.447Z,0.10
2018-12-16T15:54:09.067Z,0.10
2018-12-16T15:56:39.704Z,0.20
2018-12-16T15:59:09.114Z,0.20
2018-12-16T16:01:38.367Z,0.20
2018-12-16T16:04:15.366Z,0.20
2018-12-16T16:06:44.801Z,0.20
2018-12-16T16:09:17.051Z,0.20
2018-12-16T16:11:46.370Z,0.20
2018-12-16T16:14:15.651Z,0.20
2018-12-16T16:16:44.943Z,0.20
2018-12-16T16:19:14.262Z,0.30
2018-12-16T16:21:43.954Z,0.20
2018-12-16T16:24:13.275Z,0.20
2018-12-16T16:26:42.707Z,0.20
2018-12-16T16:29:12.096Z,0.10
2018-12-16T16:31:41.478Z,0.20
2018-12-16T16:34:10.891Z,0.20
2018-12-16T16:36:40.269Z,0.20
2018-12-16T16:39:09.708Z,0.20
2018-12-16T16:41:41.008Z,0.20
2018-12-16T16:44:10.401Z,0.20
2018-12-16T16:46:39.692Z,0.20
2018-12-16T16:49:09.227Z,0.10
2018-12-16T16:51:38.723Z,0.20
2018-12-16T16:54:08.076Z,0.20
2018-12-16T16:56:37.426Z,0.20
2018-12-16T16:59:06.803Z,0.20
2018-12-16T17:01:36.190Z,0.20
2018-12-16T17:04:05.557Z,0.20
2018-12-16T17:06:34.920Z,0.20
2018-12-16T17:09:07.089Z,0.20
2018-12-16T17:11:38.409Z,0.20
2018-12-16T17:14:07.848Z,0.20
2018-12-16T17:16:42.465Z,0.20
2018-12-16T17:19:13.051Z,0.20
2018-12-16T17:21:42.887Z,0.20
2018-12-16T17:24:15.030Z,0.20
2018-12-16T17:26:44.348Z,0.20
2018-12-16T17:29:15.280Z,0.20
2018-12-16T17:31:44.558Z,0.20
2018-12-16T17:34:13.855Z,0.20
2018-12-16T17:36:43.723Z,0.20
2018-12-16T17:39:12.998Z,0.20
2018-12-16T17:41:42.472Z,0.20
2018-12-16T17:44:13.591Z,0.20
2018-12-16T17:46:42.953Z,0.20
2018-12-16T17:49:15.554Z,0.20
2018-12-16T17:51:45.201Z,0.30
2018-12-16T17:54:14.628Z,0.30
2018-12-16T17:56:43.952Z,0.20
2018-12-16T17:59:17.893Z,0.20
2018-12-16T18:01:44.805Z,0.20
2018-12-16T18:04:16.112Z,0.20
2018-12-16T18:06:45.479Z,0.20
2018-12-16T18:09:15.981Z,0.20
2018-12-16T18:11:45.650Z,0.20
2018-12-16T18:14:15.041Z,0.20
2018-12-16T18:16:44.532Z,0.20
2018-12-16T18:19:13.873Z,0.20
2018-12-16T18:21:43.408Z,0.20
2018-12-16T18:24:13.167Z,0.20
2018-12-16T18:26:44.264Z,0.20
2018-12-16T18:29:13.781Z,0.20
2018-12-16T18:31:43.309Z,0.20
2018-12-16T18:34:12.829Z,0.20
2018-12-16T18:36:42.279Z,0.20
2018-12-16T18:39:11.630Z,0.20
2018-12-16T18:41:42.732Z,0.20
2018-12-16T18:44:12.174Z,0.20
2018-12-16T18:46:41.508Z,0.20
2018-12-16T18:49:11.239Z,0.20
2018-12-16T18:51:40.588Z,0.20
2018-12-16T18:54:10.149Z,0.20
2018-12-16T18:56:39.879Z,0.20
2018-12-16T18:59:09.248Z,0.20
2018-12-16T19:01:38.611Z,0.20
2018-12-16T19:04:08.068Z,0.20
2018-12-16T19:06:37.462Z,0.20
2018-12-16T19:09:08.084Z,0.20
2018-12-16T19:11:39.323Z,0.20
2018-12-16T19:14:08.637Z,0.20
2018-12-16T19:16:38.012Z,0.20
2018-12-16T19:19:07.589Z,0.20
2018-12-16T19:21:37.241Z,0.10
2018-12-16T19:24:06.612Z,0.10
2018-12-16T19:26:36.011Z,0.10
2018-12-16T19:29:26.758Z,0.10
2018-12-16T19:31:56.472Z,0.10
2018-12-16T19:34:28.410Z,0.10
2018-12-16T19:36:57.713Z,0.10
2018-12-16T19:39:27.153Z,0.10
2018-12-16T19:41:56.568Z,0.10
2018-12-16T19:44:25.908Z,0.10
2018-12-16T19:46:55.402Z,0.10
2018-12-16T19:49:24.995Z,0.10
2018-12-16T19:51:54.347Z,0.10
2018-12-16T19:54:24.128Z,0.10
2018-12-16T19:56:53.509Z,0.20
2018-12-16T19:59:23.142Z,0.20
2018-12-16T20:01:52.514Z,0.20
2018-12-16T20:04:23.802Z,0.20
2018-12-16T20:06:53.206Z,0.20
2018-12-16T20:09:41.822Z,0.10
2018-12-16T20:12:11.165Z,0.20
2018-12-16T20:14:41.662Z,0.20
2018-12-16T20:17:22.902Z,0.10
2018-12-16T20:19:52.334Z,0.10
2018-12-16T20:22:32.689Z,0.10
2018-12-16T20:25:04.875Z,0.20
2018-12-16T20:27:53.843Z,0.10
2018-12-16T20:30:24.743Z,0.20
2018-12-16T20:32:59.460Z,0.20
2018-12-16T20:35:29.208Z,0.20
2018-12-16T20:37:58.784Z,0.10
2018-12-16T20:40:28.487Z,0.10
2018-12-16T20:42:57.989Z,0.10
2018-12-16T20:45:27.384Z,0.10
2018-12-16T20:47:56.727Z,0.10
2018-12-16T20:50:27.098Z,0.10
2018-12-16T20:52:56.478Z,0.10
2018-12-16T20:55:26.089Z,0.10
2018-12-16T20:57:55.532Z,0.10
2018-12-16T21:00:25.768Z,0.10
2018-12-16T21:02:55.246Z,0.10
2018-12-16T21:05:24.647Z,0.10
2018-12-16T21:07:54.168Z,0.10
2018-12-16T21:10:23.529Z,0.10
2018-12-16T21:12:57.078Z,0.10
2018-12-16T21:15:30.663Z,0.10
2018-12-16T21:18:04.417Z,0.20
2018-12-16T21:20:34.159Z,0.20
2018-12-16T21:23:03.621Z,0.20
2018-12-16T21:25:32.993Z,0.20
2018-12-16T21:28:02.409Z,0.10
2018-12-16T21:30:31.913Z,0.20
2018-12-16T21:33:01.450Z,0.10
2018-12-16T21:35:31.848Z,0.10
2018-12-16T21:38:01.188Z,0.10
2018-12-16T21:40:31.210Z,0.10
2018-12-16T21:43:03.104Z,0.10
2018-12-16T21:45:37.940Z,0.10
2018-12-16T21:48:09.535Z,0.10
2018-12-16T21:50:39.029Z,0.10
2018-12-16T21:53:08.427Z,0.10
2018-12-16T21:58:15.910Z,0.10
2018-12-16T22:00:47.798Z,0.10
2018-12-16T22:03:18.105Z,0.00
2018-12-16T22:05:47.567Z,0.10
2018-12-16T22:08:16.927Z,0.10
2018-12-16T22:10:46.299Z,0.10
2018-12-16T22:13:15.638Z,0.00
2018-12-16T22:15:45.125Z,0.10
2018-12-16T22:18:14.456Z,0.10
2018-12-16T22:20:45.198Z,0.10
2018-12-16T22:23:14.406Z,0.10
2018-12-16T22:25:43.854Z,0.10
2018-12-16T22:28:16.247Z,0.10
2018-12-16T22:30:47.246Z,0.10
2018-12-16T22:33:16.652Z,0.10
2018-12-16T22:35:46.036Z,0.10
2018-12-16T22:38:15.476Z,0.10
2018-12-16T22:40:45.088Z,0.10
2018-12-16T22:43:14.447Z,0.10
2018-12-16T22:45:43.901Z,0.10
2018-12-16T22:48:13.273Z,0.10
2018-12-16T22:50:42.787Z,0.10
2018-12-16T22:53:12.247Z,0.10
2018-12-16T22:55:41.582Z,0.10
2018-12-16T22:58:11.036Z,0.10
2018-12-16T23:00:45.650Z,0.10
2018-12-16T23:03:16.945Z,0.10
2018-12-16T23:05:46.258Z,0.10
2018-12-16T23:08:15.642Z,0.10
2018-12-16T23:10:45.022Z,0.10
2018-12-16T23:13:14.409Z,0.10
2018-12-16T23:15:43.800Z,0.10
2018-12-16T23:18:13.388Z,0.10
2018-12-16T23:20:42.859Z,0.10
2018-12-16T23:23:12.188Z,0.10
2018-12-16T23:25:41.561Z,0.00
2018-12-16T23:28:11.962Z,0.00
2018-12-16T23:30:41.379Z,0.00
2018-12-16T23:33:10.898Z,0.10
2018-12-16T23:35:40.285Z,0.00
2018-12-16T23:38:11.217Z,0.00
2018-12-16T23:40:40.597Z,0.00
2018-12-16T23:43:10.546Z,0.10
2018-12-16T23:45:39.939Z,0.00
2018-12-16T23:48:09.366Z,0.00
2018-12-16T23:50:38.754Z,0.00
2018-12-16T23:53:10.102Z,0.00
2018-12-16T23:55:39.428Z,0.00
2018-12-16T23:58:08.803Z,0.00
